Time;durP1;ratioP1;P1;durP2;ratioP2;P2;SDS_P1;SDS_P2;PMS_P1;PMS_P2;Temp;Humidity;BMP_temperature;BMP_pressure;BME280_temperature;BME280_humidity;BME280_pressure;Samples;Min_cycle;Max_cycle;Signal;HPM_P1;HPM_P2
2021/03/05 00:02:05;;;;;;;11.80;9.93;;;6.90;99.90;;;;;;4912729;29;20208;-77
2021/03/05 00:04:31;;;;;;;14.60;9.88;;;6.90;99.90;;;;;;4912857;29;20211;-78
2021/03/05 00:06:57;;;;;;;15.18;11.80;;;6.90;99.90;;;;;;4910197;29;20217;-78
2021/03/05 00:09:24;;;;;;;12.63;11.25;;;6.90;99.90;;;;;;4908225;29;20235;-78
2021/03/05 00:11:50;;;;;;;13.63;10.73;;;6.80;99.90;;;;;;4907646;29;20284;-78
2021/03/05 00:14:16;;;;;;;14.25;11.65;;;6.80;99.90;;;;;;4911959;29;20215;-78
2021/03/05 00:16:42;;;;;;;19.55;16.13;;;6.80;99.90;;;;;;4914048;29;20588;-80
2021/03/05 00:19:09;;;;;;;19.67;14.75;;;6.90;99.90;;;;;;4914383;29;20302;-78
2021/03/05 00:21:35;;;;;;;20.80;15.63;;;6.70;99.90;;;;;;4914024;29;20215;-77
2021/03/05 00:24:02;;;;;;;19.98;16.65;;;6.70;99.90;;;;;;4913968;29;20286;-78
2021/03/05 00:26:28;;;;;;;26.05;17.45;;;6.40;99.90;;;;;;4913719;29;20212;-77
2021/03/05 00:28:54;;;;;;;23.88;17.85;;;6.20;99.90;;;;;;4914576;29;20241;-77
2021/03/05 00:31:20;;;;;;;24.50;18.45;;;6.10;99.90;;;;;;4914247;29;20461;-78
2021/03/05 00:33:46;;;;;;;23.73;21.10;;;5.90;99.90;;;;;;4913501;29;20211;-78
2021/03/05 00:36:14;;;;;;;33.45;24.15;;;5.90;99.90;;;;;;4914675;29;20218;-78
2021/03/05 00:38:40;;;;;;;28.95;19.63;;;5.80;99.90;;;;;;4914276;29;20247;-77
2021/03/05 00:41:06;;;;;;;24.83;20.65;;;5.60;99.90;;;;;;4913386;29;20214;-78
2021/03/05 00:43:33;;;;;;;20.35;18.05;;;5.50;99.90;;;;;;4914196;29;20239;-78
2021/03/05 00:45:59;;;;;;;32.63;20.55;;;5.40;99.90;;;;;;4914469;29;20269;-78
2021/03/05 00:48:26;;;;;;;23.30;18.98;;;5.40;99.90;;;;;;4914514;29;20222;-78
2021/03/05 00:50:52;;;;;;;26.45;20.38;;;5.20;99.90;;;;;;4914937;29;20247;-78
2021/03/05 00:53:19;;;;;;;30.42;21.60;;;5.20;99.90;;;;;;4914572;29;20219;-78
2021/03/05 00:55:45;;;;;;;28.85;18.27;;;5.20;99.90;;;;;;4914701;29;20221;-78
2021/03/05 00:58:11;;;;;;;28.67;18.73;;;5.10;99.90;;;;;;4914714;29;20235;-78
2021/03/05 01:00:38;;;;;;;26.15;19.30;;;5.00;99.90;;;;;;4914801;29;20265;-78
2021/03/05 01:03:05;;;;;;;31.17;22.70;;;4.90;99.90;;;;;;4907252;29;20632;-78
2021/03/05 01:05:31;;;;;;;27.90;20.20;;;4.90;99.90;;;;;;4915107;29;20211;-77
2021/03/05 01:07:58;;;;;;;28.58;21.02;;;4.80;99.90;;;;;;4915362;29;20211;-78
2021/03/05 01:10:26;;;;;;;30.15;21.35;;;4.80;99.90;;;;;;4916949;29;20245;-78
2021/03/05 01:12:52;;;;;;;28.92;20.58;;;4.80;99.90;;;;;;4916011;29;20241;-78
2021/03/05 01:15:19;;;;;;;30.00;21.75;;;4.80;99.90;;;;;;4916683;29;20215;-78
2021/03/05 01:17:45;;;;;;;24.65;18.10;;;4.80;99.90;;;;;;4916044;29;20266;-78
2021/03/05 01:20:14;;;;;;;29.10;18.42;;;4.50;99.90;;;;;;4915910;29;20231;-78
2021/03/05 01:22:40;;;;;;;30.20;21.02;;;4.50;99.90;;;;;;4915849;29;20203;-78
2021/03/05 01:25:08;;;;;;;30.73;24.30;;;4.30;99.90;;;;;;4915909;29;20222;-78
2021/03/05 01:27:35;;;;;;;27.08;19.48;;;4.30;99.90;;;;;;4915493;29;20244;-78
2021/03/05 01:30:03;;;;;;;37.20;24.35;;;4.30;99.90;;;;;;4916270;29;20227;-78
2021/03/05 01:32:29;;;;;;;32.53;22.58;;;4.30;99.90;;;;;;4915376;29;20238;-77
2021/03/05 01:34:55;;;;;;;34.47;22.67;;;4.30;99.90;;;;;;4915544;29;20222;-78
2021/03/05 01:37:22;;;;;;;35.85;22.77;;;4.20;99.90;;;;;;4915110;29;20259;-78
2021/03/05 01:39:48;;;;;;;40.45;23.35;;;4.10;99.90;;;;;;4915464;29;20271;-78
2021/03/05 01:42:14;;;;;;;32.08;21.95;;;4.20;99.90;;;;;;4914718;29;20214;-78
2021/03/05 01:44:41;;;;;;;35.40;23.85;;;4.10;99.90;;;;;;4914296;29;20222;-78
2021/03/05 01:47:08;;;;;;;32.60;22.55;;;4.00;99.90;;;;;;4914669;29;20218;-78
2021/03/05 01:49:34;;;;;;;35.47;23.13;;;3.90;99.90;;;;;;4914523;29;20237;-78
2021/03/05 01:52:00;;;;;;;32.10;21.58;;;3.80;99.90;;;;;;4914901;29;20231;-77
2021/03/05 01:54:26;;;;;;;37.67;23.52;;;3.80;99.90;;;;;;4915008;29;20218;-78
2021/03/05 01:56:53;;;;;;;43.15;22.23;;;3.90;99.90;;;;;;4915647;29;20239;-78
2021/03/05 01:59:24;;;;;;;36.70;21.65;;;4.00;99.90;;;;;;4914542;29;20238;-77
2021/03/05 02:01:51;;;;;;;37.15;22.92;;;4.00;99.90;;;;;;4915096;29;20218;-77
2021/03/05 02:04:19;;;;;;;30.38;19.27;;;4.00;99.90;;;;;;4914459;29;20246;-77
2021/03/05 02:06:46;;;;;;;28.58;17.48;;;3.90;99.90;;;;;;4913952;29;20214;-77
2021/03/05 02:09:12;;;;;;;24.80;19.17;;;3.80;99.90;;;;;;4913791;29;20266;-78
2021/03/05 02:11:38;;;;;;;27.60;18.98;;;3.80;99.90;;;;;;4912815;29;20290;-77
2021/03/05 02:14:07;;;;;;;31.02;19.05;;;3.80;99.90;;;;;;4913815;29;20311;-77
2021/03/05 02:16:44;;;;;;;19.40;12.90;;;3.70;99.90;;;;;;4912689;29;20218;-77
2021/03/05 02:19:28;;;;;;;28.95;20.17;;;3.70;99.90;;;;;;4912318;29;20237;-77
2021/03/05 02:22:20;;;;;;;36.38;20.27;;;3.70;99.90;;;;;;4912681;29;20217;-77
2021/03/05 02:25:13;;;;;;;34.85;22.67;;;3.70;99.90;;;;;;4912372;29;20222;-77
2021/03/05 02:28:01;;;;;;;30.60;19.42;;;3.70;99.90;;;;;;4911054;29;20215;-77
2021/03/05 02:30:45;;;;;;;33.67;21.80;;;3.60;99.90;;;;;;4910770;29;20298;-77
2021/03/05 02:33:18;;;;;;;44.15;27.08;;;3.50;99.90;;;;;;4909287;29;20231;-77
2021/03/05 02:35:46;;;;;;;44.63;26.38;;;3.40;99.90;;;;;;4909127;29;20218;-77
2021/03/05 02:38:15;;;;;;;37.92;22.85;;;3.40;99.90;;;;;;4909101;29;20221;-77
2021/03/05 02:40:45;;;;;;;34.72;23.02;;;3.30;99.90;;;;;;4907404;29;20231;-77
2021/03/05 02:43:15;;;;;;;36.30;24.13;;;3.30;99.90;;;;;;4907549;29;20210;-77
2021/03/05 02:45:43;;;;;;;39.42;22.45;;;3.30;99.90;;;;;;4908917;29;20273;-77
2021/03/05 02:48:13;;;;;;;43.10;22.33;;;3.40;99.90;;;;;;4910179;29;20215;-77
2021/03/05 02:50:43;;;;;;;38.13;24.85;;;3.40;99.90;;;;;;4910143;29;20247;-77
2021/03/05 02:53:12;;;;;;;30.48;21.95;;;3.50;99.90;;;;;;4911367;29;20226;-77
2021/03/05 02:55:41;;;;;;;39.67;24.42;;;3.50;99.90;;;;;;4910965;29;20211;-77
2021/03/05 02:58:09;;;;;;;39.15;25.27;;;3.50;99.90;;;;;;4914432;29;20220;-77
2021/03/05 03:00:36;;;;;;;33.63;21.92;;;3.60;99.90;;;;;;4913601;29;20794;-77
2021/03/05 03:03:04;;;;;;;32.67;21.55;;;3.60;99.90;;;;;;4912591;29;20218;-77
2021/03/05 03:05:31;;;;;;;36.85;22.27;;;3.50;99.90;;;;;;4912623;29;20215;-77
2021/03/05 03:07:58;;;;;;;44.42;26.70;;;3.40;99.90;;;;;;4911086;29;20213;-77
2021/03/05 03:10:27;;;;;;;35.53;24.85;;;3.40;99.90;;;;;;4910832;29;20246;-77
2021/03/05 03:12:55;;;;;;;34.88;23.27;;;3.50;99.90;;;;;;4912460;29;20737;-77
2021/03/05 03:15:24;;;;;;;38.45;24.17;;;3.50;99.90;;;;;;4913121;29;20214;-77
2021/03/05 03:17:53;;;;;;;33.22;21.65;;;3.40;99.90;;;;;;4913384;29;20215;-77
2021/03/05 03:20:21;;;;;;;41.22;23.75;;;3.30;99.90;;;;;;4911134;29;20231;-77
2021/03/05 03:22:49;;;;;;;44.20;25.80;;;3.30;99.90;;;;;;4913234;29;20218;-77
2021/03/05 03:25:15;;;;;;;32.42;22.95;;;3.30;99.90;;;;;;4914445;29;20266;-77
2021/03/05 03:27:43;;;;;;;39.78;22.35;;;3.40;99.90;;;;;;4914305;29;20210;-77
2021/03/05 03:30:11;;;;;;;37.60;23.60;;;3.40;99.90;;;;;;4913881;29;20229;-77
2021/03/05 03:32:38;;;;;;;37.08;23.73;;;3.40;99.90;;;;;;4911366;29;20239;-77
2021/03/05 03:35:06;;;;;;;32.47;24.85;;;3.30;99.90;;;;;;4912769;29;20215;-77
2021/03/05 03:37:33;;;;;;;36.72;21.00;;;3.30;99.90;;;;;;4912683;29;20211;-77
2021/03/05 03:40:00;;;;;;;36.22;22.73;;;3.40;99.90;;;;;;4912774;29;20239;-77
2021/03/05 03:42:27;;;;;;;36.20;22.20;;;3.30;99.90;;;;;;4911538;29;20217;-78
2021/03/05 03:44:54;;;;;;;32.65;20.38;;;3.20;99.90;;;;;;4912285;29;20210;-78
2021/03/05 03:47:21;;;;;;;46.67;27.60;;;3.20;99.90;;;;;;4912928;29;20386;-78
2021/03/05 03:49:52;;;;;;;33.22;21.58;;;3.20;99.90;;;;;;4916303;29;20262;-77
2021/03/05 03:52:26;;;;;;;40.65;21.88;;;3.30;99.90;;;;;;4916153;29;20265;-78
2021/03/05 03:54:54;;;;;;;42.10;24.42;;;3.20;99.90;;;;;;4917063;29;20210;-77
2021/03/05 03:57:23;;;;;;;40.15;24.13;;;3.20;99.90;;;;;;4916753;29;20218;-78
2021/03/05 03:59:50;;;;;;;43.45;22.77;;;3.10;99.90;;;;;;4916734;29;20244;-78
2021/03/05 04:02:19;;;;;;;34.72;21.85;;;3.10;99.90;;;;;;4915806;29;20213;-78
2021/03/05 04:04:46;;;;;;;34.88;22.90;;;3.20;99.90;;;;;;4916687;29;20225;-77
2021/03/05 04:07:13;;;;;;;28.00;21.60;;;3.10;99.90;;;;;;4916375;29;20217;-78
2021/03/05 04:09:40;;;;;;;25.58;16.77;;;3.10;99.90;;;;;;4916663;29;20235;-77
2021/03/05 04:12:08;;;;;;;24.38;18.30;;;3.00;99.90;;;;;;4916895;29;20257;-78
2021/03/05 04:14:36;;;;;;;30.88;22.15;;;3.10;99.90;;;;;;4916731;29;20229;-78
2021/03/05 04:17:02;;;;;;;27.98;18.48;;;3.10;99.90;;;;;;4916788;29;20207;-78
2021/03/05 04:19:30;;;;;;;25.42;17.02;;;3.20;99.90;;;;;;4916729;29;20238;-78
2021/03/05 04:21:56;;;;;;;22.52;15.50;;;3.20;99.90;;;;;;4915827;29;20240;-77
2021/03/05 04:24:23;;;;;;;19.17;13.50;;;3.10;99.90;;;;;;4916113;29;20216;-78
2021/03/05 04:26:49;;;;;;;30.45;19.27;;;3.10;99.90;;;;;;4915973;29;20218;-78
2021/03/05 04:29:15;;;;;;;27.25;17.30;;;3.10;99.90;;;;;;4914954;29;20257;-78
2021/03/05 04:31:42;;;;;;;27.02;15.60;;;3.10;99.90;;;;;;4915597;29;20698;-78
2021/03/05 04:34:08;;;;;;;22.67;16.20;;;3.00;99.90;;;;;;4915725;29;20241;-78
2021/03/05 04:36:35;;;;;;;21.08;16.63;;;3.00;99.90;;;;;;4914234;29;20218;-78
2021/03/05 04:39:01;;;;;;;18.98;13.20;;;3.00;99.90;;;;;;4914548;29;20648;-78
2021/03/05 04:41:28;;;;;;;27.35;17.65;;;2.90;99.90;;;;;;4916310;29;20220;-78
2021/03/05 04:43:54;;;;;;;20.38;15.32;;;2.90;99.90;;;;;;4916600;29;20208;-78
2021/03/05 04:46:20;;;;;;;24.90;15.43;;;2.90;99.90;;;;;;4915937;29;20224;-77
2021/03/05 04:48:47;;;;;;;21.60;14.57;;;3.00;99.90;;;;;;4915037;29;20244;-77
2021/03/05 04:51:13;;;;;;;25.42;16.42;;;2.90;99.90;;;;;;4916053;29;20228;-78
2021/03/05 04:53:40;;;;;;;20.08;15.13;;;2.90;99.90;;;;;;4915347;29;20234;-78
2021/03/05 04:56:06;;;;;;;19.08;14.70;;;2.80;99.90;;;;;;4914790;29;20216;-77
2021/03/05 04:58:32;;;;;;;21.67;16.75;;;2.90;99.90;;;;;;4914377;29;20263;-78
2021/03/05 05:00:58;;;;;;;27.88;18.52;;;2.90;99.90;;;;;;4913870;29;20219;-77
2021/03/05 05:03:24;;;;;;;26.42;16.90;;;2.90;99.90;;;;;;4913940;29;20243;-77
2021/03/05 05:05:52;;;;;;;26.02;17.80;;;3.00;99.90;;;;;;4914473;29;20218;-76
2021/03/05 05:08:18;;;;;;;25.05;16.30;;;2.90;99.90;;;;;;4913654;29;20213;-77
2021/03/05 05:10:44;;;;;;;23.23;16.17;;;3.00;99.90;;;;;;4912664;29;20330;-77
2021/03/05 05:13:10;;;;;;;21.02;15.98;;;3.00;99.90;;;;;;4912283;29;20739;-77
2021/03/05 05:15:36;;;;;;;21.00;16.85;;;2.90;99.90;;;;;;4912342;29;20216;-78
2021/03/05 05:18:03;;;;;;;26.20;18.42;;;3.00;99.90;;;;;;4912703;29;20212;-77
2021/03/05 05:20:30;;;;;;;28.20;18.50;;;2.90;99.90;;;;;;4913057;29;20231;-77
2021/03/05 05:22:57;;;;;;;22.58;15.73;;;2.90;99.90;;;;;;4913025;29;20210;-77
2021/03/05 05:25:23;;;;;;;26.00;16.30;;;3.00;99.90;;;;;;4913603;29;20218;-77
2021/03/05 05:27:49;;;;;;;25.58;13.80;;;3.00;99.90;;;;;;4913985;29;20207;-77
2021/03/05 05:30:16;;;;;;;28.48;17.05;;;3.10;99.90;;;;;;4913320;29;20231;-77
2021/03/05 05:32:42;;;;;;;23.60;18.33;;;3.00;99.90;;;;;;4913076;29;20775;-78
2021/03/05 05:35:09;;;;;;;25.15;16.38;;;3.00;99.90;;;;;;4913734;29;20211;-78
2021/03/05 05:37:36;;;;;;;25.20;17.42;;;3.00;99.90;;;;;;4912944;29;20669;-77
2021/03/05 05:40:04;;;;;;;23.45;15.73;;;3.00;99.90;;;;;;4913516;29;20233;-78
2021/03/05 05:42:30;;;;;;;25.58;15.45;;;3.10;99.90;;;;;;4913246;29;20221;-77
2021/03/05 05:44:56;;;;;;;26.25;15.35;;;3.10;99.90;;;;;;4912626;29;20220;-77
2021/03/05 05:47:23;;;;;;;23.73;15.93;;;3.10;99.90;;;;;;4913665;29;20246;-77
2021/03/05 05:49:50;;;;;;;24.17;15.80;;;3.20;99.90;;;;;;4913244;29;20231;-77
2021/03/05 05:52:20;;;;;;;21.48;14.18;;;3.10;99.90;;;;;;4913268;29;20225;-77
2021/03/05 05:54:48;;;;;;;21.60;14.18;;;3.10;99.90;;;;;;4911757;29;20232;-77
2021/03/05 05:57:16;;;;;;;25.70;15.40;;;3.00;99.90;;;;;;4912337;29;20221;-78
2021/03/05 05:59:43;;;;;;;23.90;15.85;;;3.00;99.90;;;;;;4912715;29;20231;-77
2021/03/05 06:02:11;;;;;;;23.55;13.77;;;3.10;99.90;;;;;;4912723;29;20213;-78
2021/03/05 06:04:38;;;;;;;21.75;14.60;;;3.00;99.90;;;;;;4911834;29;20223;-77
2021/03/05 06:07:04;;;;;;;23.95;13.82;;;3.00;99.90;;;;;;4912755;29;20218;-77
2021/03/05 06:09:32;;;;;;;21.10;13.93;;;2.90;99.90;;;;;;4913009;29;20237;-78
2021/03/05 06:11:58;;;;;;;20.30;13.60;;;3.00;99.90;;;;;;4913243;29;20227;-78
2021/03/05 06:14:25;;;;;;;23.58;15.10;;;3.10;99.90;;;;;;4913656;29;20861;-78
2021/03/05 06:16:56;;;;;;;19.85;11.32;;;3.20;99.90;;;;;;4913850;29;20215;-77
2021/03/05 06:19:25;;;;;;;24.63;15.20;;;3.00;99.90;;;;;;4914596;29;20292;-77
2021/03/05 06:21:52;;;;;;;16.73;11.82;;;3.10;99.90;;;;;;4914955;29;20211;-77
2021/03/05 06:24:18;;;;;;;23.77;14.30;;;2.90;99.90;;;;;;4914868;29;20209;-78
2021/03/05 06:26:53;;;;;;;22.77;14.57;;;3.10;99.90;;;;;;4914567;29;20614;-77
2021/03/05 06:29:22;;;;;;;18.70;12.05;;;3.00;99.90;;;;;;4915411;29;20233;-78
2021/03/05 06:31:57;;;;;;;22.40;13.88;;;3.00;99.90;;;;;;4918812;29;20234;-78
2021/03/05 06:34:24;;;;;;;25.98;14.20;;;3.00;99.90;;;;;;4919363;29;20440;-78
2021/03/05 06:37:00;;;;;;;24.35;13.82;;;3.00;99.90;;;;;;4919185;29;20233;-77
2021/03/05 06:39:27;;;;;;;21.98;14.85;;;3.10;99.90;;;;;;4918785;29;20255;-78
2021/03/05 06:42:01;;;;;;;24.58;13.88;;;3.10;99.90;;;;;;4918410;29;20216;-78
2021/03/05 06:44:28;;;;;;;23.98;14.07;;;3.20;99.90;;;;;;4918870;29;20219;-78
2021/03/05 06:46:55;;;;;;;22.10;14.40;;;3.30;99.90;;;;;;4918045;29;20215;-78
2021/03/05 06:49:21;;;;;;;21.77;13.55;;;3.10;99.90;;;;;;4918887;29;20231;-78
2021/03/05 06:51:53;;;;;;;23.30;13.18;;;3.10;99.90;;;;;;4918874;29;20277;-78
2021/03/05 06:54:20;;;;;;;21.58;12.98;;;3.20;99.90;;;;;;4923221;29;20195;-77
2021/03/05 06:56:49;;;;;;;22.40;14.05;;;3.20;99.90;;;;;;4924585;29;20191;-77
2021/03/05 06:59:17;;;;;;;26.23;14.73;;;3.10;99.90;;;;;;4923503;29;20241;-78
2021/03/05 07:01:55;;;;;;;22.05;12.75;;;3.10;99.90;;;;;;4923080;29;20265;-77
2021/03/05 07:04:23;;;;;;;20.30;12.98;;;3.10;99.90;;;;;;4923239;29;20254;-77
2021/03/05 07:07:03;;;;;;;23.95;14.77;;;3.00;99.90;;;;;;4922632;29;20201;-77
2021/03/05 07:09:32;;;;;;;21.65;13.68;;;3.00;99.90;;;;;;4923982;29;20222;-78
2021/03/05 07:11:59;;;;;;;23.73;12.52;;;3.10;99.90;;;;;;4922721;29;20231;-77
2021/03/05 07:14:27;;;;;;;20.35;12.38;;;3.20;99.90;;;;;;4922996;29;20214;-78
2021/03/05 07:16:55;;;;;;;21.35;13.05;;;3.20;99.90;;;;;;4923202;29;20222;-77
2021/03/05 07:19:25;;;;;;;21.42;12.38;;;3.30;99.90;;;;;;4923234;29;20233;-77
2021/03/05 07:21:52;;;;;;;21.10;12.60;;;3.30;99.90;;;;;;4918369;29;20214;-78
2021/03/05 07:24:20;;;;;;;22.67;13.63;;;3.40;99.90;;;;;;4917934;29;20209;-77
2021/03/05 07:26:53;;;;;;;20.58;12.65;;;3.30;99.90;;;;;;4913839;29;20683;-78
2021/03/05 07:29:22;;;;;;;23.83;14.75;;;3.40;99.90;;;;;;4913551;29;20235;-77
2021/03/05 07:31:59;;;;;;;21.00;13.93;;;3.40;99.90;;;;;;4918470;29;20200;-77
2021/03/05 07:34:27;;;;;;;24.02;13.60;;;3.40;99.90;;;;;;4917877;29;20213;-78
2021/03/05 07:36:57;;;;;;;25.42;14.85;;;3.40;99.90;;;;;;4919722;29;20767;-77
2021/03/05 07:39:28;;;;;;;22.50;13.25;;;3.40;99.90;;;;;;4914599;29;20229;-78
2021/03/05 07:41:55;;;;;;;24.83;15.93;;;3.40;99.90;;;;;;4911120;29;20206;-77
2021/03/05 07:44:24;;;;;;;23.73;15.32;;;3.40;99.90;;;;;;4914759;29;20205;-79
2021/03/05 07:46:50;;;;;;;21.38;13.38;;;3.50;99.90;;;;;;4916716;29;20214;-77
2021/03/05 07:49:24;;;;;;;24.15;14.60;;;3.50;99.90;;;;;;4915095;29;20233;-78
2021/03/05 07:51:51;;;;;;;20.25;13.98;;;3.50;99.90;;;;;;4915708;29;20238;-79
2021/03/05 07:54:45;;;;;;;22.88;13.27;;;3.60;99.90;;;;;;4917388;29;20206;-80
2021/03/05 07:57:49;;;;;;;25.08;13.65;;;3.50;99.90;;;;;;4910637;29;20208;-78
2021/03/05 08:00:44;;;;;;;23.33;15.13;;;3.60;99.90;;;;;;4911767;29;20601;-79
2021/03/05 08:03:11;;;;;;;24.77;13.15;;;3.70;99.90;;;;;;4916051;29;20221;-82
2021/03/05 08:05:43;;;;;;;25.90;16.35;;;3.60;99.90;;;;;;4929962;29;20697;-80
2021/03/05 08:08:23;;;;;;;17.85;12.93;;;3.70;99.90;;;;;;4929023;29;20211;-80
2021/03/05 08:10:52;;;;;;;26.35;14.50;;;3.70;99.90;;;;;;4928534;29;20646;-80
2021/03/05 08:13:46;;;;;;;22.95;13.77;;;3.60;99.90;;;;;;4928614;29;20234;-80
2021/03/05 08:16:41;;;;;;;20.25;15.80;;;3.60;99.90;;;;;;4931527;29;20268;-81
2021/03/05 08:19:52;;;;;;;18.90;13.25;;;3.80;99.90;;;;;;4922882;29;20234;-79
2021/03/05 08:22:20;;;;;;;19.00;12.43;;;3.70;99.90;;;;;;4898697;29;20192;-81
2021/03/05 08:24:46;;;;;;;21.42;12.70;;;3.60;99.90;;;;;;4903988;29;20240;-81
2021/03/05 08:27:37;;;;;;;24.65;14.73;;;3.50;99.90;;;;;;4902363;29;20563;-81
2021/03/05 08:30:09;;;;;;;21.45;14.50;;;3.50;99.90;;;;;;4903862;29;20235;-80
2021/03/05 08:33:02;;;;;;;22.30;13.73;;;3.60;99.90;;;;;;4901985;29;20229;-80
2021/03/05 08:35:49;;;;;;;23.55;11.73;;;3.70;99.90;;;;;;4856374;29;20211;-82
2021/03/05 08:38:19;;;;;;;21.83;13.48;;;3.70;99.90;;;;;;4908472;29;20282;-80
2021/03/05 08:41:04;;;;;;;19.15;11.80;;;3.80;99.90;;;;;;4907761;29;20215;-80
2021/03/05 08:43:31;;;;;;;21.92;12.73;;;3.80;99.90;;;;;;4906240;29;20574;-80
2021/03/05 08:46:00;;;;;;;16.30;11.63;;;3.80;99.90;;;;;;4905923;29;20221;-80
2021/03/05 08:48:37;;;;;;;20.20;14.65;;;3.80;99.90;;;;;;4903794;29;20210;-80
2021/03/05 08:51:06;;;;;;;20.08;12.27;;;3.80;99.90;;;;;;4904360;29;20629;-80
2021/03/05 08:53:41;;;;;;;21.45;13.73;;;3.80;99.90;;;;;;4903432;29;20323;-80
2021/03/05 08:56:10;;;;;;;20.85;11.77;;;3.90;99.90;;;;;;4900680;29;20211;-79
2021/03/05 08:58:36;;;;;;;17.35;11.77;;;4.00;99.90;;;;;;4902390;29;20238;-79
2021/03/05 09:01:03;;;;;;;24.38;12.80;;;4.00;99.90;;;;;;4902511;29;20311;-80
2021/03/05 09:03:29;;;;;;;18.02;12.05;;;4.20;99.90;;;;;;4905148;29;20207;-78
2021/03/05 09:05:55;;;;;;;19.88;12.00;;;4.40;99.90;;;;;;4906163;29;20218;-80
2021/03/05 09:08:23;;;;;;;16.98;12.45;;;4.40;99.90;;;;;;4901174;29;20214;-80
2021/03/05 09:10:52;;;;;;;20.20;11.55;;;4.50;99.90;;;;;;4905427;29;20253;-79
2021/03/05 09:13:21;;;;;;;20.95;11.77;;;4.60;99.90;;;;;;4905421;29;20230;-82
2021/03/05 09:15:49;;;;;;;14.75;10.65;;;4.60;99.90;;;;;;4909184;29;20427;-79
2021/03/05 09:18:17;;;;;;;16.38;11.13;;;4.60;99.90;;;;;;4905089;29;20917;-79
2021/03/05 09:20:46;;;;;;;15.75;9.20;;;4.60;99.90;;;;;;4915145;29;20239;-80
2021/03/05 09:23:17;;;;;;;11.45;8.73;;;4.60;99.90;;;;;;4907420;29;20649;-79
2021/03/05 09:25:53;;;;;;;14.90;11.10;;;4.60;99.90;;;;;;4906971;29;20233;-83
2021/03/05 09:28:21;;;;;;;13.25;11.32;;;4.50;99.90;;;;;;4908225;29;20388;-81
2021/03/05 09:30:52;;;;;;;18.27;11.25;;;4.50;99.90;;;;;;4913570;29;20211;-83
2021/03/05 09:33:26;;;;;;;17.63;11.65;;;4.50;99.90;;;;;;4909584;29;20318;-82
2021/03/05 09:35:59;;;;;;;16.30;11.25;;;4.50;99.90;;;;;;4909659;29;20211;-80
2021/03/05 09:38:25;;;;;;;20.30;9.55;;;4.60;99.90;;;;;;4903829;29;20280;-81
2021/03/05 09:40:52;;;;;;;14.52;10.45;;;4.60;99.90;;;;;;4905211;29;20218;-81
2021/03/05 09:43:18;;;;;;;14.40;9.63;;;4.80;99.90;;;;;;4906170;29;20226;-81
2021/03/05 09:45:48;;;;;;;19.08;10.93;;;4.70;99.90;;;;;;4905778;29;20703;-81
2021/03/05 09:48:27;;;;;;;14.48;10.30;;;4.80;99.90;;;;;;4906146;29;20796;-81
2021/03/05 09:50:57;;;;;;;13.70;10.20;;;4.80;99.90;;;;;;4906390;29;20207;-82
2021/03/05 09:53:28;;;;;;;17.45;10.40;;;4.70;99.90;;;;;;4905922;29;20230;-81
2021/03/05 09:55:58;;;;;;;14.68;10.45;;;4.80;99.90;;;;;;4906019;29;20222;-81
2021/03/05 09:58:24;;;;;;;13.43;10.10;;;4.80;99.90;;;;;;4905421;29;20218;-81
2021/03/05 10:00:52;;;;;;;16.75;10.68;;;4.70;99.90;;;;;;4906396;29;20215;-82
2021/03/05 10:03:19;;;;;;;13.75;9.63;;;4.60;99.90;;;;;;4905433;29;20222;-83
2021/03/05 10:05:46;;;;;;;15.98;10.38;;;4.50;99.90;;;;;;4910047;29;20214;-81
2021/03/05 10:08:15;;;;;;;13.52;10.35;;;4.50;99.90;;;;;;4910567;29;20267;-82
2021/03/05 10:11:05;;;;;;;15.13;9.05;;;4.70;99.90;;;;;;4910304;29;20290;-82
2021/03/05 10:13:46;;;;;;;16.48;9.73;;;4.70;99.90;;;;;;4909708;29;20259;-82
2021/03/05 10:16:18;;;;;;;14.70;10.45;;;4.80;99.90;;;;;;4910093;29;20672;-81
2021/03/05 10:18:46;;;;;;;12.18;10.80;;;5.00;99.90;;;;;;4908321;29;20282;-82
2021/03/05 10:21:13;;;;;;;11.85;8.30;;;5.10;99.90;;;;;;4910470;29;20638;-82
2021/03/05 10:23:40;;;;;;;12.90;10.18;;;5.30;99.90;;;;;;4909925;29;20218;-81
2021/03/05 10:26:19;;;;;;;14.32;9.73;;;5.40;99.90;;;;;;4912722;29;20210;-82
2021/03/05 10:28:47;;;;;;;13.75;11.48;;;5.50;99.90;;;;;;4909898;29;20235;-82
2021/03/05 10:31:13;;;;;;;11.60;9.48;;;5.40;99.90;;;;;;4911486;29;20211;-82
2021/03/05 10:33:42;;;;;;;15.65;9.18;;;5.40;99.90;;;;;;4908273;29;20251;-81
2021/03/05 10:36:10;;;;;;;16.05;10.38;;;5.60;99.90;;;;;;4910023;29;20211;-81
2021/03/05 10:38:37;;;;;;;15.52;9.82;;;5.70;99.90;;;;;;4908793;29;20219;-82
2021/03/05 10:41:05;;;;;;;10.40;8.35;;;5.70;99.90;;;;;;4909696;29;20222;-81
2021/03/05 10:43:34;;;;;;;13.80;9.07;;;5.60;99.90;;;;;;4910019;29;20207;-82
2021/03/05 10:46:01;;;;;;;11.25;8.02;;;5.60;99.90;;;;;;4909538;29;20211;-81
2021/03/05 10:48:27;;;;;;;12.43;9.65;;;5.80;99.90;;;;;;4908993;29;20215;-83
2021/03/05 10:50:53;;;;;;;11.32;9.43;;;5.60;99.90;;;;;;4901445;29;20211;-83
2021/03/05 10:53:20;;;;;;;14.23;10.13;;;5.50;99.90;;;;;;4901355;29;20234;-82
2021/03/05 10:55:46;;;;;;;14.88;8.65;;;5.60;99.90;;;;;;4901773;29;20211;-83
2021/03/05 10:58:12;;;;;;;13.48;8.95;;;5.60;99.90;;;;;;4901582;29;20214;-82
2021/03/05 11:00:39;;;;;;;14.20;10.45;;;5.50;99.90;;;;;;4901344;29;20231;-82
2021/03/05 11:03:06;;;;;;;16.33;12.27;;;5.50;99.90;;;;;;4901289;29;20209;-82
2021/03/05 11:05:32;;;;;;;16.95;12.60;;;5.50;99.90;;;;;;4901462;29;20218;-83
2021/03/05 11:07:58;;;;;;;13.45;9.65;;;5.50;99.90;;;;;;4901951;29;20211;-83
2021/03/05 11:10:24;;;;;;;16.73;10.52;;;5.50;99.90;;;;;;4902494;29;20263;-82
2021/03/05 11:12:51;;;;;;;15.48;11.85;;;5.50;99.90;;;;;;4902383;29;20227;-83
2021/03/05 11:15:18;;;;;;;12.85;9.27;;;5.20;99.90;;;;;;4902252;29;20251;-83
2021/03/05 11:17:45;;;;;;;12.20;9.32;;;5.10;99.90;;;;;;4902774;29;20226;-83
2021/03/05 11:20:13;;;;;;;13.77;9.20;;;5.00;99.90;;;;;;4902879;29;20235;-83
2021/03/05 11:22:39;;;;;;;13.60;10.57;;;5.00;99.90;;;;;;4902918;29;20213;-83
2021/03/05 11:25:07;;;;;;;18.23;11.27;;;4.90;99.90;;;;;;4902391;29;20214;-83
2021/03/05 11:27:35;;;;;;;17.15;9.75;;;4.80;99.90;;;;;;4902619;29;20706;-83
2021/03/05 11:30:02;;;;;;;13.73;9.18;;;4.70;99.90;;;;;;4902365;29;20614;-82
2021/03/05 11:32:33;;;;;;;12.85;10.80;;;4.70;99.90;;;;;;4902369;29;20226;-82
2021/03/05 11:35:00;;;;;;;15.77;9.77;;;4.80;99.90;;;;;;4902786;29;20215;-83
2021/03/05 11:37:28;;;;;;;12.48;9.40;;;4.90;99.90;;;;;;4902759;29;20207;-83
2021/03/05 11:39:54;;;;;;;13.65;9.10;;;5.00;99.90;;;;;;4901865;29;20238;-83
2021/03/05 11:42:20;;;;;;;12.75;8.32;;;4.90;99.90;;;;;;4902233;29;20211;-83
2021/03/05 11:44:46;;;;;;;12.35;10.30;;;4.90;99.90;;;;;;4901913;29;20626;-83
2021/03/05 11:47:13;;;;;;;12.98;9.57;;;5.00;99.90;;;;;;4902476;29;20222;-83
2021/03/05 11:49:39;;;;;;;15.50;9.95;;;5.10;99.90;;;;;;4902890;29;20629;-82
2021/03/05 11:52:07;;;;;;;15.63;10.13;;;5.00;99.90;;;;;;4902527;29;20215;-82
2021/03/05 11:54:33;;;;;;;12.02;9.65;;;5.00;99.90;;;;;;4903958;29;20389;-84
2021/03/05 11:56:59;;;;;;;16.35;11.77;;;5.00;99.90;;;;;;4903836;29;20211;-83
2021/03/05 11:59:25;;;;;;;17.55;13.13;;;4.90;99.90;;;;;;4901684;29;20648;-82
2021/03/05 12:01:51;;;;;;;14.93;10.73;;;4.90;99.90;;;;;;4901465;29;20267;-82
2021/03/05 12:04:18;;;;;;;13.48;10.55;;;5.00;99.90;;;;;;4901610;29;20230;-84
2021/03/05 12:06:44;;;;;;;15.93;11.30;;;5.00;99.90;;;;;;4902622;29;20632;-83
2021/03/05 12:09:11;;;;;;;12.50;9.07;;;5.00;99.90;;;;;;4900677;29;20266;-82
2021/03/05 12:11:37;;;;;;;13.32;9.95;;;5.00;99.90;;;;;;4901334;29;20215;-83
2021/03/05 12:14:05;;;;;;;15.48;10.60;;;4.90;99.90;;;;;;4904149;29;20793;-83
2021/03/05 12:16:31;;;;;;;14.32;11.07;;;4.90;99.90;;;;;;4940321;29;20209;-83
2021/03/05 12:19:00;;;;;;;18.13;10.00;;;5.00;99.90;;;;;;4939253;29;20233;-82
2021/03/05 12:21:26;;;;;;;14.40;10.35;;;5.00;99.90;;;;;;4938746;29;20594;-82
2021/03/05 12:23:52;;;;;;;13.40;9.48;;;4.90;99.90;;;;;;4939607;29;20209;-84
2021/03/05 12:26:23;;;;;;;14.27;11.00;;;4.90;99.90;;;;;;4927830;29;20215;-83
2021/03/05 12:31:34;;;;;;;17.70;9.88;;;4.90;99.90;;;;;;4913113;29;20584;-85
2021/03/05 12:34:02;;;;;;;17.40;10.20;;;5.10;99.90;;;;;;4922246;29;20226;-85
2021/03/05 12:36:41;;;;;;;14.07;9.25;;;5.10;99.90;;;;;;4921303;29;20218;-87
2021/03/05 12:39:20;;;;;;;9.40;7.00;;;5.00;99.90;;;;;;4914892;29;20261;-87
2021/03/05 12:41:47;;;;;;;10.48;9.30;;;5.00;99.90;;;;;;4919996;29;20257;-84
2021/03/05 12:44:14;;;;;;;12.20;9.13;;;5.00;99.90;;;;;;4919798;29;20210;-82
2021/03/05 12:46:40;;;;;;;15.27;10.68;;;5.00;99.90;;;;;;4919133;29;20218;-82
2021/03/05 12:49:07;;;;;;;13.02;9.88;;;4.90;99.90;;;;;;4920316;29;20245;-81
2021/03/05 12:51:33;;;;;;;15.68;10.40;;;5.00;99.90;;;;;;4918710;29;20218;-82